AirNav   Everest Fuels
 
 945 users online  

PA28 Excela Health Heliport
Greensburg, Pennsylvania, USA

GOING TO GREENSBURG?


FAA INFORMATION EFFECTIVE 05 DECEMBER 2019

Location

FAA Identifier: PA28
Lat/Long: 40-18-04.2490N 079-33-19.1450W
40-18.070817N 079-33.319083W
40.3011803,-79.5553181
(estimated)
Elevation: 1100 ft. / 335 m (estimated)
Variation: 09W (2000)
From city: 1 mile W of GREENSBURG, PA
Time zone: UTC -5 (UTC -4 during Daylight Saving Time)
Zip code: 15601

Heliport Operations

Heliport use: Private use. Permission required prior to landing
Activation date: 10/1989
Control tower: no
ARTCC: CLEVELAND CENTER
FSS: ALTOONA FLIGHT SERVICE STATION
NOTAMs facility: FDC (NOTAM-D service not available)
Attendance: CONTINUOUS
Wind indicator: yes
Segmented circle: no
Lights: ACTVT FLOOD AND PERIMETER LGTS CTC 724-832-4878.

Heliport Communications

JOHNSTOWN APPROACH: 120.4
JOHNSTOWN DEPARTURE: 120.4
EJUDY DP: 121.2
WX AWOS-3 at LBE (7 nm E): 118.375 (724-539-0671)
WX AWOS-3 at FWQ (14 nm SW): 118.475 (724-379-5815)
WX ASOS at AGC (17 nm W): PHONE 412-466-8968
  • APCH/DEP SVC PRVDD BY CLEVELAND ARTCC ON FREQ 124.4/327.1 1200-0400Z++ (ALTOONA RCAG ) WHEN JOHNSTOWN APCH CTL CLSD.

Nearby radio navigation aids

VOR radial/distance  VOR name  Freq  Var
IHDr341/21.6INDIAN HEAD VORTAC108.2006W
AGCr096/22.3ALLEGHENY VOR/DME110.0009W
JSTr274/33.0JOHNSTOWN VOR/DME113.0006W
RECr257/39.7REVLOC VOR/DME110.6009W

 
NDB name  Hdg/Dist  Freq  Var  ID
STOYSTOWN304/32.020910WSYS ... -.-- ...

Heliport Services

Runway Information

Helipad H1

Dimensions: 39 x 39 ft. / 12 x 12 m
Surface: mats, in fair condition
Runway edge lights: PERI
FLOOD LGTS.
Latitude: 40-18.070817N
Longitude: 079-33.319083W
Elevation: 1100.0 ft.
Traffic pattern: leftleft
Markings: none, in fair condition

Heliport Ownership and Management from official FAA records

Ownership: Privately-owned
Owner: WESTMORELAND HOSPITAL
532 W PITTSBURGH ST
GREENSBURG, PA 15601
Phone 724-537-4000
Manager: MICHAEL ROSENSTEEL
ONE MELLON WAY
LATROBE, PA 15650
Phone 724-537-1411

Additional Remarks

A52-H1 25 FT TWR 45 FT W OF HELI.
FOR CD CTC JOHNSTOWN APCH AT 814-532-5960, WHEN APCH CLSD CTC CLEVELAND ARTCC AT 440-774-0234.

Instrument Procedures

There are no published instrument procedures at PA28.

Some nearby airports with instrument procedures:

KLBE - Arnold Palmer Regional Airport (7 nm E)
KFWQ - Rostraver Airport (14 nm SW)
KAGC - Allegheny County Airport (17 nm W)
KVVS - Joseph A Hardy Connellsville Airport (21 nm S)
G05 - Finleyville Airpark (21 nm W)
 
Loc | Ops | Rwys | IFR | FBO | Links
Com | Nav | Svcs | Stats | Notes
Area around PA28 (Excela Health Heliport)
 
Road maps at: MapQuest Bing Google
 
Aerial photo
No photo
 
Sectional chart

 
Airport distance calculator
Flying to Excela Health Heliport? Find the distance to fly.

From to PA28

Sunrise and sunset
Times for 12-Dec-2019
 Local
(UTC-5)
 Zulu
(UTC)
Morning civil twilight07:0212:02
Sunrise07:3312:33
Sunset16:5121:51
Evening civil twilight17:2222:22

Current date and time
Zulu (UTC)  12-Dec-2019 23:41:37
Local (UTC-5)  12-Dec-2019 18:41:37
 
METAR
KLBE 
7nm E 
122251Z 15005KT 10SM SKC 01/M09 A3045
KP53 
14nm SW 
122256Z AUTO 05006KT M06/M08 A3005 RMK AO1 SLP190 P0001 T10561078
KAGC 
17nm W 
122253Z 00000KT 10SM CLR 01/M08 A3041 RMK AO2 SLP320 T00061078
TAF
KLBE 
7nm E 
121722Z 1218/1318 18005KT P6SM BKN250 FM131600 14005KT P6SM VCSH BKN040
KAGC 
17nm W 
121722Z 1218/1318 16005KT P6SM BKN250 FM131600 00000KT P6SM VCSH BKN050
NOTAMs
Click for the latest NOTAMs
NOTAMs are issued by the DoD/FAA and will open in a separate window not controlled by AirNav.

 

 
 

Would you like to see your business listed on this page?

 If your business provides an interesting product or service to pilots, flight crews, aircraft, or users of the Excela Health Heliport, you should consider listing it here.  To start the listing process, click on the button below
 
Add a business
 

Other Pages about Excela Health Heliport

Update a link
 
Copyright © AirNav, LLC. All rights reserved. Privacy Policy  Contact